sensor_id;sensor_type;location;lat;lon;timestamp;P1;durP1;ratioP1;P2;durP2;ratioP2
39066;SDS011;24821;51.988;6.020;2023-07-29T00:01:26;10.20;;;9.60;;
39066;SDS011;24821;51.988;6.020;2023-07-29T00:03:52;11.50;;;10.52;;
39066;SDS011;24821;51.988;6.020;2023-07-29T00:06:17;9.80;;;9.20;;
39066;SDS011;24821;51.988;6.020;2023-07-29T00:08:43;9.95;;;9.23;;
39066;SDS011;24821;51.988;6.020;2023-07-29T00:11:08;9.98;;;9.18;;
39066;SDS011;24821;51.988;6.020;2023-07-29T00:13:34;9.50;;;8.60;;
39066;SDS011;24821;51.988;6.020;2023-07-29T00:16:00;10.40;;;9.60;;
39066;SDS011;24821;51.988;6.020;2023-07-29T00:18:25;9.07;;;8.38;;
39066;SDS011;24821;51.988;6.020;2023-07-29T00:20:52;9.82;;;9.15;;
39066;SDS011;24821;51.988;6.020;2023-07-29T00:23:18;10.73;;;10.02;;
39066;SDS011;24821;51.988;6.020;2023-07-29T00:25:44;9.52;;;8.85;;
39066;SDS011;24821;51.988;6.020;2023-07-29T00:28:10;9.77;;;9.18;;
39066;SDS011;24821;51.988;6.020;2023-07-29T00:30:36;12.65;;;9.57;;
39066;SDS011;24821;51.988;6.020;2023-07-29T00:33:02;10.73;;;10.13;;
39066;SDS011;24821;51.988;6.020;2023-07-29T00:35:27;10.77;;;9.68;;
39066;SDS011;24821;51.988;6.020;2023-07-29T00:37:53;10.45;;;9.75;;
39066;SDS011;24821;51.988;6.020;2023-07-29T00:40:22;9.98;;;9.02;;
39066;SDS011;24821;51.988;6.020;2023-07-29T00:42:48;9.85;;;9.15;;
39066;SDS011;24821;51.988;6.020;2023-07-29T00:45:15;8.48;;;7.90;;
39066;SDS011;24821;51.988;6.020;2023-07-29T00:47:41;10.05;;;9.25;;
39066;SDS011;24821;51.988;6.020;2023-07-29T00:50:08;10.10;;;9.45;;
39066;SDS011;24821;51.988;6.020;2023-07-29T00:52:35;9.02;;;8.43;;
39066;SDS011;24821;51.988;6.020;2023-07-29T00:55:01;9.45;;;8.80;;
39066;SDS011;24821;51.988;6.020;2023-07-29T00:57:27;9.98;;;9.32;;
39066;SDS011;24821;51.988;6.020;2023-07-29T00:59:54;9.45;;;8.85;;
39066;SDS011;24821;51.988;6.020;2023-07-29T01:02:20;9.93;;;9.23;;
39066;SDS011;24821;51.988;6.020;2023-07-29T01:04:51;9.93;;;9.27;;
39066;SDS011;24821;51.988;6.020;2023-07-29T01:07:36;10.60;;;9.73;;
39066;SDS011;24821;51.988;6.020;2023-07-29T01:15:49;10.57;;;9.85;;
39066;SDS011;24821;51.988;6.020;2023-07-29T01:18:28;10.75;;;10.05;;
39066;SDS011;24821;51.988;6.020;2023-07-29T01:20:59;10.68;;;10.05;;
39066;SDS011;24821;51.988;6.020;2023-07-29T01:23:31;10.13;;;9.43;;
39066;SDS011;24821;51.988;6.020;2023-07-29T01:25:59;10.85;;;10.07;;
39066;SDS011;24821;51.988;6.020;2023-07-29T01:28:25;11.77;;;10.80;;
39066;SDS011;24821;51.988;6.020;2023-07-29T01:30:52;11.20;;;10.45;;
39066;SDS011;24821;51.988;6.020;2023-07-29T01:33:25;10.25;;;9.65;;
39066;SDS011;24821;51.988;6.020;2023-07-29T01:35:54;11.20;;;10.50;;
39066;SDS011;24821;51.988;6.020;2023-07-29T01:38:30;11.93;;;10.93;;
39066;SDS011;24821;51.988;6.020;2023-07-29T01:41:03;9.80;;;9.25;;
39066;SDS011;24821;51.988;6.020;2023-07-29T01:43:31;10.50;;;9.95;;
39066;SDS011;24821;51.988;6.020;2023-07-29T01:45:57;10.55;;;9.88;;
39066;SDS011;24821;51.988;6.020;2023-07-29T01:48:23;10.15;;;9.55;;
39066;SDS011;24821;51.988;6.020;2023-07-29T01:50:49;9.77;;;9.20;;
39066;SDS011;24821;51.988;6.020;2023-07-29T01:53:14;11.00;;;10.40;;
39066;SDS011;24821;51.988;6.020;2023-07-29T01:55:42;10.40;;;9.70;;
39066;SDS011;24821;51.988;6.020;2023-07-29T01:58:09;9.98;;;9.35;;
39066;SDS011;24821;51.988;6.020;2023-07-29T02:00:35;9.65;;;9.00;;
39066;SDS011;24821;51.988;6.020;2023-07-29T02:03:00;10.95;;;10.25;;
39066;SDS011;24821;51.988;6.020;2023-07-29T02:05:26;10.60;;;10.05;;
39066;SDS011;24821;51.988;6.020;2023-07-29T02:07:51;10.18;;;9.48;;
39066;SDS011;24821;51.988;6.020;2023-07-29T02:10:17;9.70;;;9.20;;
39066;SDS011;24821;51.988;6.020;2023-07-29T02:12:43;10.05;;;9.43;;
39066;SDS011;24821;51.988;6.020;2023-07-29T02:15:08;10.63;;;9.75;;
39066;SDS011;24821;51.988;6.020;2023-07-29T02:17:34;11.05;;;10.40;;
39066;SDS011;24821;51.988;6.020;2023-07-29T02:20:00;11.23;;;10.60;;
39066;SDS011;24821;51.988;6.020;2023-07-29T02:22:26;11.82;;;10.95;;
39066;SDS011;24821;51.988;6.020;2023-07-29T02:24:51;10.50;;;9.88;;
39066;SDS011;24821;51.988;6.020;2023-07-29T02:27:17;11.05;;;10.45;;
39066;SDS011;24821;51.988;6.020;2023-07-29T02:29:44;11.52;;;10.82;;
39066;SDS011;24821;51.988;6.020;2023-07-29T02:32:09;12.18;;;11.30;;
39066;SDS011;24821;51.988;6.020;2023-07-29T02:34:35;11.65;;;10.88;;
39066;SDS011;24821;51.988;6.020;2023-07-29T02:37:00;10.63;;;9.93;;
39066;SDS011;24821;51.988;6.020;2023-07-29T02:39:26;11.90;;;11.07;;
39066;SDS011;24821;51.988;6.020;2023-07-29T02:41:52;11.50;;;10.80;;
39066;SDS011;24821;51.988;6.020;2023-07-29T02:44:17;11.15;;;10.13;;
39066;SDS011;24821;51.988;6.020;2023-07-29T02:46:45;9.93;;;9.23;;
39066;SDS011;24821;51.988;6.020;2023-07-29T02:49:10;11.32;;;10.52;;
39066;SDS011;24821;51.988;6.020;2023-07-29T02:51:36;10.75;;;10.05;;
39066;SDS011;24821;51.988;6.020;2023-07-29T02:54:01;11.48;;;10.63;;
39066;SDS011;24821;51.988;6.020;2023-07-29T02:56:27;10.63;;;9.93;;
39066;SDS011;24821;51.988;6.020;2023-07-29T02:58:52;10.85;;;10.18;;
39066;SDS011;24821;51.988;6.020;2023-07-29T03:01:18;10.73;;;9.93;;
39066;SDS011;24821;51.988;6.020;2023-07-29T03:03:44;11.20;;;10.32;;
39066;SDS011;24821;51.988;6.020;2023-07-29T03:06:11;11.38;;;10.68;;
39066;SDS011;24821;51.988;6.020;2023-07-29T03:08:38;11.52;;;10.82;;
39066;SDS011;24821;51.988;6.020;2023-07-29T03:11:08;12.15;;;11.02;;
39066;SDS011;24821;51.988;6.020;2023-07-29T03:13:35;13.35;;;12.35;;
39066;SDS011;24821;51.988;6.020;2023-07-29T03:16:19;13.40;;;12.20;;
39066;SDS011;24821;51.988;6.020;2023-07-29T03:18:45;13.02;;;11.93;;
39066;SDS011;24821;51.988;6.020;2023-07-29T03:21:10;12.95;;;11.82;;
39066;SDS011;24821;51.988;6.020;2023-07-29T03:23:36;13.20;;;12.13;;
39066;SDS011;24821;51.988;6.020;2023-07-29T03:26:03;12.55;;;11.63;;
39066;SDS011;24821;51.988;6.020;2023-07-29T03:28:35;13.05;;;12.02;;
39066;SDS011;24821;51.988;6.020;2023-07-29T03:31:02;12.25;;;11.30;;
39066;SDS011;24821;51.988;6.020;2023-07-29T03:33:28;12.05;;;11.25;;
39066;SDS011;24821;51.988;6.020;2023-07-29T03:35:53;11.98;;;11.23;;
39066;SDS011;24821;51.988;6.020;2023-07-29T03:38:19;12.35;;;11.15;;
39066;SDS011;24821;51.988;6.020;2023-07-29T03:40:45;11.55;;;10.48;;
39066;SDS011;24821;51.988;6.020;2023-07-29T03:43:10;11.88;;;10.88;;
39066;SDS011;24821;51.988;6.020;2023-07-29T03:45:36;11.23;;;10.43;;
39066;SDS011;24821;51.988;6.020;2023-07-29T03:48:03;10.48;;;9.88;;
39066;SDS011;24821;51.988;6.020;2023-07-29T03:50:29;10.20;;;9.70;;
39066;SDS011;24821;51.988;6.020;2023-07-29T03:52:55;9.57;;;8.98;;
39066;SDS011;24821;51.988;6.020;2023-07-29T03:55:21;10.13;;;9.23;;
39066;SDS011;24821;51.988;6.020;2023-07-29T03:57:47;10.52;;;9.73;;
39066;SDS011;24821;51.988;6.020;2023-07-29T04:00:13;9.23;;;8.73;;
39066;SDS011;24821;51.988;6.020;2023-07-29T04:02:39;9.02;;;8.43;;
39066;SDS011;24821;51.988;6.020;2023-07-29T04:05:05;8.88;;;8.27;;
39066;SDS011;24821;51.988;6.020;2023-07-29T04:07:33;9.80;;;9.20;;
39066;SDS011;24821;51.988;6.020;2023-07-29T04:10:00;9.07;;;8.52;;
39066;SDS011;24821;51.988;6.020;2023-07-29T04:12:26;9.05;;;8.45;;
39066;SDS011;24821;51.988;6.020;2023-07-29T04:14:51;8.35;;;7.95;;
39066;SDS011;24821;51.988;6.020;2023-07-29T04:17:17;8.88;;;8.45;;
39066;SDS011;24821;51.988;6.020;2023-07-29T04:19:43;9.32;;;8.63;;
39066;SDS011;24821;51.988;6.020;2023-07-29T04:22:08;9.15;;;8.55;;
39066;SDS011;24821;51.988;6.020;2023-07-29T04:24:34;8.15;;;7.75;;
39066;SDS011;24821;51.988;6.020;2023-07-29T04:27:00;8.43;;;7.93;;
39066;SDS011;24821;51.988;6.020;2023-07-29T04:29:25;8.32;;;7.65;;
39066;SDS011;24821;51.988;6.020;2023-07-29T04:31:51;8.27;;;7.80;;
39066;SDS011;24821;51.988;6.020;2023-07-29T04:34:17;8.82;;;8.13;;
39066;SDS011;24821;51.988;6.020;2023-07-29T04:36:44;8.35;;;7.85;;
39066;SDS011;24821;51.988;6.020;2023-07-29T04:39:10;8.15;;;7.55;;
39066;SDS011;24821;51.988;6.020;2023-07-29T04:41:36;7.95;;;7.55;;
39066;SDS011;24821;51.988;6.020;2023-07-29T04:44:01;8.32;;;7.90;;
39066;SDS011;24821;51.988;6.020;2023-07-29T04:46:27;7.82;;;7.18;;
39066;SDS011;24821;51.988;6.020;2023-07-29T04:48:52;7.72;;;7.32;;
39066;SDS011;24821;51.988;6.020;2023-07-29T04:51:18;7.95;;;7.45;;
39066;SDS011;24821;51.988;6.020;2023-07-29T04:53:44;8.07;;;7.68;;
39066;SDS011;24821;51.988;6.020;2023-07-29T04:56:09;8.10;;;7.60;;
39066;SDS011;24821;51.988;6.020;2023-07-29T04:58:35;8.25;;;7.75;;
39066;SDS011;24821;51.988;6.020;2023-07-29T05:01:01;7.18;;;6.88;;
39066;SDS011;24821;51.988;6.020;2023-07-29T05:03:27;7.93;;;7.53;;
39066;SDS011;24821;51.988;6.020;2023-07-29T05:05:53;7.40;;;7.00;;
39066;SDS011;24821;51.988;6.020;2023-07-29T05:08:20;7.15;;;6.80;;
39066;SDS011;24821;51.988;6.020;2023-07-29T05:10:49;8.15;;;7.43;;
39066;SDS011;24821;51.988;6.020;2023-07-29T05:13:15;7.28;;;6.80;;
39066;SDS011;24821;51.988;6.020;2023-07-29T05:15:40;7.68;;;7.28;;
39066;SDS011;24821;51.988;6.020;2023-07-29T05:18:06;6.93;;;6.63;;
39066;SDS011;24821;51.988;6.020;2023-07-29T05:20:32;7.38;;;6.97;;
39066;SDS011;24821;51.988;6.020;2023-07-29T05:22:57;6.80;;;6.50;;
39066;SDS011;24821;51.988;6.020;2023-07-29T05:25:23;6.88;;;6.35;;
39066;SDS011;24821;51.988;6.020;2023-07-29T05:27:48;7.43;;;6.95;;
39066;SDS011;24821;51.988;6.020;2023-07-29T05:30:14;6.70;;;6.40;;
39066;SDS011;24821;51.988;6.020;2023-07-29T05:32:39;7.63;;;6.95;;
39066;SDS011;24821;51.988;6.020;2023-07-29T05:35:05;6.68;;;6.30;;
39066;SDS011;24821;51.988;6.020;2023-07-29T05:37:31;5.93;;;5.63;;
39066;SDS011;24821;51.988;6.020;2023-07-29T05:39:57;6.70;;;6.35;;
39066;SDS011;24821;51.988;6.020;2023-07-29T05:42:22;6.57;;;6.28;;
39066;SDS011;24821;51.988;6.020;2023-07-29T05:44:48;6.40;;;6.10;;
39066;SDS011;24821;51.988;6.020;2023-07-29T05:47:13;5.80;;;5.50;;
39066;SDS011;24821;51.988;6.020;2023-07-29T05:49:39;6.85;;;6.45;;
39066;SDS011;24821;51.988;6.020;2023-07-29T05:52:05;6.90;;;6.43;;
39066;SDS011;24821;51.988;6.020;2023-07-29T05:54:30;7.15;;;6.60;;
39066;SDS011;24821;51.988;6.020;2023-07-29T05:56:56;6.78;;;6.28;;
39066;SDS011;24821;51.988;6.020;2023-07-29T05:59:21;6.60;;;6.25;;
39066;SDS011;24821;51.988;6.020;2023-07-29T06:01:47;7.68;;;7.18;;
39066;SDS011;24821;51.988;6.020;2023-07-29T06:04:12;6.70;;;6.20;;
39066;SDS011;24821;51.988;6.020;2023-07-29T06:06:38;6.38;;;5.93;;
39066;SDS011;24821;51.988;6.020;2023-07-29T06:09:04;6.47;;;6.18;;
39066;SDS011;24821;51.988;6.020;2023-07-29T06:11:29;7.38;;;6.97;;
39066;SDS011;24821;51.988;6.020;2023-07-29T06:13:55;7.57;;;6.93;;
39066;SDS011;24821;51.988;6.020;2023-07-29T06:16:20;7.75;;;7.05;;
39066;SDS011;24821;51.988;6.020;2023-07-29T06:18:46;7.15;;;6.75;;
39066;SDS011;24821;51.988;6.020;2023-07-29T06:21:11;7.80;;;7.30;;
39066;SDS011;24821;51.988;6.020;2023-07-29T06:23:42;7.53;;;6.93;;
39066;SDS011;24821;51.988;6.020;2023-07-29T06:26:08;7.15;;;6.70;;
39066;SDS011;24821;51.988;6.020;2023-07-29T06:28:33;7.22;;;6.78;;
39066;SDS011;24821;51.988;6.020;2023-07-29T06:30:59;7.13;;;6.72;;
39066;SDS011;24821;51.988;6.020;2023-07-29T06:33:25;8.15;;;7.45;;
39066;SDS011;24821;51.988;6.020;2023-07-29T06:35:50;7.72;;;7.28;;
39066;SDS011;24821;51.988;6.020;2023-07-29T06:38:16;7.82;;;7.32;;
39066;SDS011;24821;51.988;6.020;2023-07-29T06:40:46;8.45;;;6.57;;
39066;SDS011;24821;51.988;6.020;2023-07-29T06:43:14;7.90;;;7.40;;
39066;SDS011;24821;51.988;6.020;2023-07-29T06:45:40;7.63;;;7.13;;
39066;SDS011;24821;51.988;6.020;2023-07-29T06:48:06;7.65;;;7.25;;
39066;SDS011;24821;51.988;6.020;2023-07-29T06:50:31;8.20;;;7.50;;
39066;SDS011;24821;51.988;6.020;2023-07-29T06:52:57;8.60;;;8.00;;
39066;SDS011;24821;51.988;6.020;2023-07-29T06:55:22;8.75;;;8.25;;
39066;SDS011;24821;51.988;6.020;2023-07-29T06:57:48;10.00;;;9.10;;
39066;SDS011;24821;51.988;6.020;2023-07-29T07:00:13;8.43;;;7.82;;
39066;SDS011;24821;51.988;6.020;2023-07-29T07:02:39;10.05;;;8.80;;
39066;SDS011;24821;51.988;6.020;2023-07-29T07:05:05;8.15;;;7.40;;
39066;SDS011;24821;51.988;6.020;2023-07-29T07:07:30;8.23;;;7.70;;
39066;SDS011;24821;51.988;6.020;2023-07-29T07:09:56;9.45;;;8.80;;
39066;SDS011;24821;51.988;6.020;2023-07-29T07:12:22;9.23;;;8.63;;
39066;SDS011;24821;51.988;6.020;2023-07-29T07:14:47;11.10;;;9.48;;
39066;SDS011;24821;51.988;6.020;2023-07-29T07:17:13;8.82;;;8.30;;
39066;SDS011;24821;51.988;6.020;2023-07-29T07:19:39;8.93;;;8.20;;
39066;SDS011;24821;51.988;6.020;2023-07-29T07:22:04;10.23;;;9.52;;
39066;SDS011;24821;51.988;6.020;2023-07-29T07:24:30;8.60;;;8.20;;
39066;SDS011;24821;51.988;6.020;2023-07-29T07:26:56;9.38;;;8.77;;
39066;SDS011;24821;51.988;6.020;2023-07-29T07:29:21;8.55;;;8.05;;
39066;SDS011;24821;51.988;6.020;2023-07-29T07:31:51;9.00;;;8.38;;
39066;SDS011;24821;51.988;6.020;2023-07-29T07:34:18;9.13;;;8.63;;
39066;SDS011;24821;51.988;6.020;2023-07-29T07:36:44;9.23;;;8.57;;
39066;SDS011;24821;51.988;6.020;2023-07-29T07:39:09;8.27;;;7.88;;
39066;SDS011;24821;51.988;6.020;2023-07-29T07:41:35;8.13;;;7.63;;
39066;SDS011;24821;51.988;6.020;2023-07-29T07:44:01;9.23;;;8.63;;
39066;SDS011;24821;51.988;6.020;2023-07-29T07:46:27;9.75;;;9.15;;
39066;SDS011;24821;51.988;6.020;2023-07-29T07:48:53;9.10;;;8.50;;
39066;SDS011;24821;51.988;6.020;2023-07-29T07:51:19;9.20;;;8.70;;
39066;SDS011;24821;51.988;6.020;2023-07-29T07:53:44;8.98;;;8.35;;
39066;SDS011;24821;51.988;6.020;2023-07-29T07:56:10;7.43;;;7.03;;
39066;SDS011;24821;51.988;6.020;2023-07-29T07:58:35;9.55;;;8.95;;
39066;SDS011;24821;51.988;6.020;2023-07-29T08:01:02;10.85;;;10.25;;
39066;SDS011;24821;51.988;6.020;2023-07-29T08:03:31;9.18;;;8.65;;
39066;SDS011;24821;51.988;6.020;2023-07-29T08:05:57;8.85;;;8.27;;
39066;SDS011;24821;51.988;6.020;2023-07-29T08:08:23;9.07;;;8.57;;
39066;SDS011;24821;51.988;6.020;2023-07-29T08:10:49;8.05;;;7.55;;
39066;SDS011;24821;51.988;6.020;2023-07-29T08:13:15;8.50;;;7.90;;
39066;SDS011;24821;51.988;6.020;2023-07-29T08:15:40;9.32;;;8.70;;
39066;SDS011;24821;51.988;6.020;2023-07-29T08:18:06;9.13;;;8.60;;
39066;SDS011;24821;51.988;6.020;2023-07-29T08:20:32;9.48;;;8.98;;
39066;SDS011;24821;51.988;6.020;2023-07-29T08:22:57;10.60;;;9.90;;
39066;SDS011;24821;51.988;6.020;2023-07-29T08:25:23;10.20;;;9.65;;
39066;SDS011;24821;51.988;6.020;2023-07-29T08:27:49;9.50;;;8.88;;
39066;SDS011;24821;51.988;6.020;2023-07-29T08:30:14;10.15;;;9.45;;
39066;SDS011;24821;51.988;6.020;2023-07-29T08:32:41;9.57;;;8.95;;
39066;SDS011;24821;51.988;6.020;2023-07-29T08:35:07;9.20;;;8.45;;
39066;SDS011;24821;51.988;6.020;2023-07-29T08:37:32;7.00;;;6.60;;
39066;SDS011;24821;51.988;6.020;2023-07-29T08:39:58;8.68;;;8.18;;
39066;SDS011;24821;51.988;6.020;2023-07-29T08:42:24;9.15;;;8.65;;
39066;SDS011;24821;51.988;6.020;2023-07-29T08:44:54;8.15;;;7.75;;
39066;SDS011;24821;51.988;6.020;2023-07-29T08:47:21;7.97;;;7.43;;
39066;SDS011;24821;51.988;6.020;2023-07-29T08:49:46;8.30;;;7.88;;
39066;SDS011;24821;51.988;6.020;2023-07-29T08:52:13;8.18;;;7.78;;
39066;SDS011;24821;51.988;6.020;2023-07-29T08:54:40;7.55;;;7.05;;
39066;SDS011;24821;51.988;6.020;2023-07-29T08:57:06;8.25;;;7.85;;
39066;SDS011;24821;51.988;6.020;2023-07-29T08:59:32;7.47;;;6.97;;
39066;SDS011;24821;51.988;6.020;2023-07-29T09:01:58;7.80;;;7.30;;
39066;SDS011;24821;51.988;6.020;2023-07-29T09:04:24;8.00;;;7.60;;
39066;SDS011;24821;51.988;6.020;2023-07-29T09:06:51;7.80;;;7.40;;
39066;SDS011;24821;51.988;6.020;2023-07-29T09:09:18;7.57;;;7.05;;
39066;SDS011;24821;51.988;6.020;2023-07-29T09:11:44;9.32;;;8.75;;
39066;SDS011;24821;51.988;6.020;2023-07-29T09:14:09;8.25;;;7.85;;
39066;SDS011;24821;51.988;6.020;2023-07-29T09:16:35;8.85;;;8.35;;
39066;SDS011;24821;51.988;6.020;2023-07-29T09:19:02;8.43;;;7.82;;
39066;SDS011;24821;51.988;6.020;2023-07-29T09:21:28;8.85;;;8.45;;
39066;SDS011;24821;51.988;6.020;2023-07-29T09:23:54;9.50;;;9.10;;
39066;SDS011;24821;51.988;6.020;2023-07-29T09:26:24;8.40;;;8.05;;
39066;SDS011;24821;51.988;6.020;2023-07-29T09:28:55;7.10;;;6.75;;
39066;SDS011;24821;51.988;6.020;2023-07-29T09:31:22;7.43;;;6.97;;
39066;SDS011;24821;51.988;6.020;2023-07-29T09:33:49;7.30;;;6.90;;
39066;SDS011;24821;51.988;6.020;2023-07-29T09:36:15;7.50;;;7.07;;
39066;SDS011;24821;51.988;6.020;2023-07-29T09:38:41;7.07;;;6.68;;
39066;SDS011;24821;51.988;6.020;2023-07-29T09:41:07;7.53;;;7.10;;
39066;SDS011;24821;51.988;6.020;2023-07-29T09:43:36;7.75;;;7.35;;
39066;SDS011;24821;51.988;6.020;2023-07-29T09:46:02;6.20;;;5.80;;
39066;SDS011;24821;51.988;6.020;2023-07-29T09:48:32;6.20;;;5.70;;
39066;SDS011;24821;51.988;6.020;2023-07-29T09:50:59;6.53;;;6.22;;
39066;SDS011;24821;51.988;6.020;2023-07-29T09:53:24;5.72;;;5.35;;
39066;SDS011;24821;51.988;6.020;2023-07-29T09:55:52;6.13;;;5.82;;
39066;SDS011;24821;51.988;6.020;2023-07-29T09:58:27;6.60;;;6.13;;
39066;SDS011;24821;51.988;6.020;2023-07-29T10:00:53;5.63;;;5.32;;
39066;SDS011;24821;51.988;6.020;2023-07-29T10:03:20;6.68;;;6.25;;
39066;SDS011;24821;51.988;6.020;2023-07-29T10:05:46;6.60;;;6.10;;
39066;SDS011;24821;51.988;6.020;2023-07-29T10:08:12;6.90;;;6.40;;
39066;SDS011;24821;51.988;6.020;2023-07-29T10:10:39;6.82;;;6.43;;
39066;SDS011;24821;51.988;6.020;2023-07-29T10:13:07;7.97;;;7.47;;
39066;SDS011;24821;51.988;6.020;2023-07-29T10:15:33;7.00;;;6.22;;
39066;SDS011;24821;51.988;6.020;2023-07-29T10:18:01;7.47;;;7.15;;
39066;SDS011;24821;51.988;6.020;2023-07-29T10:20:27;9.23;;;8.43;;
39066;SDS011;24821;51.988;6.020;2023-07-29T10:22:54;6.20;;;5.63;;
39066;SDS011;24821;51.988;6.020;2023-07-29T10:25:23;6.80;;;6.30;;
39066;SDS011;24821;51.988;6.020;2023-07-29T10:27:56;6.10;;;5.85;;
39066;SDS011;24821;51.988;6.020;2023-07-29T10:30:26;5.47;;;5.22;;
39066;SDS011;24821;51.988;6.020;2023-07-29T10:32:53;5.40;;;5.10;;
39066;SDS011;24821;51.988;6.020;2023-07-29T10:35:23;5.72;;;5.32;;
39066;SDS011;24821;51.988;6.020;2023-07-29T10:37:50;5.60;;;5.30;;
39066;SDS011;24821;51.988;6.020;2023-07-29T10:40:18;5.82;;;5.60;;
39066;SDS011;24821;51.988;6.020;2023-07-29T10:43:00;5.95;;;5.65;;
39066;SDS011;24821;51.988;6.020;2023-07-29T10:45:28;6.28;;;5.97;;
39066;SDS011;24821;51.988;6.020;2023-07-29T10:48:06;7.50;;;6.82;;
39066;SDS011;24821;51.988;6.020;2023-07-29T10:50:35;6.78;;;6.47;;
39066;SDS011;24821;51.988;6.020;2023-07-29T10:53:01;6.50;;;6.20;;
39066;SDS011;24821;51.988;6.020;2023-07-29T10:55:33;6.45;;;6.15;;
39066;SDS011;24821;51.988;6.020;2023-07-29T10:58:07;6.95;;;6.55;;
39066;SDS011;24821;51.988;6.020;2023-07-29T11:00:42;7.32;;;7.03;;
39066;SDS011;24821;51.988;6.020;2023-07-29T11:03:09;6.60;;;6.30;;
39066;SDS011;24821;51.988;6.020;2023-07-29T11:05:41;6.28;;;5.97;;
39066;SDS011;24821;51.988;6.020;2023-07-29T11:08:17;6.13;;;5.82;;
39066;SDS011;24821;51.988;6.020;2023-07-29T11:13:28;7.13;;;6.78;;
39066;SDS011;24821;51.988;6.020;2023-07-29T11:15:55;6.57;;;6.22;;
39066;SDS011;24821;51.988;6.020;2023-07-29T11:18:23;6.93;;;6.43;;
39066;SDS011;24821;51.988;6.020;2023-07-29T11:20:57;6.88;;;6.57;;
39066;SDS011;24821;51.988;6.020;2023-07-29T11:23:27;6.85;;;6.13;;
39066;SDS011;24821;51.988;6.020;2023-07-29T11:25:57;6.65;;;6.25;;
39066;SDS011;24821;51.988;6.020;2023-07-29T11:28:24;5.57;;;5.28;;
39066;SDS011;24821;51.988;6.020;2023-07-29T11:30:50;6.22;;;5.93;;
39066;SDS011;24821;51.988;6.020;2023-07-29T11:33:23;6.55;;;6.25;;
39066;SDS011;24821;51.988;6.020;2023-07-29T11:35:50;6.10;;;5.85;;
39066;SDS011;24821;51.988;6.020;2023-07-29T11:38:17;6.60;;;6.30;;
39066;SDS011;24821;51.988;6.020;2023-07-29T11:40:53;7.10;;;6.70;;
39066;SDS011;24821;51.988;6.020;2023-07-29T11:43:19;6.47;;;6.18;;
39066;SDS011;24821;51.988;6.020;2023-07-29T11:45:45;5.85;;;5.65;;
39066;SDS011;24821;51.988;6.020;2023-07-29T11:48:10;5.82;;;5.63;;
39066;SDS011;24821;51.988;6.020;2023-07-29T11:50:36;5.70;;;5.47;;
39066;SDS011;24821;51.988;6.020;2023-07-29T11:53:02;5.75;;;5.47;;
39066;SDS011;24821;51.988;6.020;2023-07-29T11:55:28;7.90;;;5.55;;
39066;SDS011;24821;51.988;6.020;2023-07-29T11:57:53;6.50;;;6.20;;
39066;SDS011;24821;51.988;6.020;2023-07-29T12:00:19;5.75;;;5.40;;
39066;SDS011;24821;51.988;6.020;2023-07-29T12:02:46;6.07;;;5.78;;
39066;SDS011;24821;51.988;6.020;2023-07-29T12:05:14;6.28;;;5.97;;
39066;SDS011;24821;51.988;6.020;2023-07-29T12:07:40;5.45;;;5.15;;
39066;SDS011;24821;51.988;6.020;2023-07-29T12:10:08;6.03;;;5.78;;
39066;SDS011;24821;51.988;6.020;2023-07-29T12:12:44;6.10;;;5.55;;
39066;SDS011;24821;51.988;6.020;2023-07-29T12:15:13;7.22;;;6.63;;
39066;SDS011;24821;51.988;6.020;2023-07-29T12:17:48;7.18;;;6.88;;
39066;SDS011;24821;51.988;6.020;2023-07-29T12:20:13;7.53;;;7.22;;
39066;SDS011;24821;51.988;6.020;2023-07-29T12:22:39;8.10;;;7.70;;
39066;SDS011;24821;51.988;6.020;2023-07-29T12:25:05;9.30;;;8.80;;
39066;SDS011;24821;51.988;6.020;2023-07-29T12:27:31;8.57;;;8.25;;
39066;SDS011;24821;51.988;6.020;2023-07-29T12:29:57;8.85;;;8.45;;
39066;SDS011;24821;51.988;6.020;2023-07-29T12:32:25;7.57;;;7.28;;
39066;SDS011;24821;51.988;6.020;2023-07-29T12:34:52;7.43;;;7.13;;
39066;SDS011;24821;51.988;6.020;2023-07-29T12:37:19;8.57;;;8.10;;
39066;SDS011;24821;51.988;6.020;2023-07-29T12:39:44;7.32;;;7.03;;
39066;SDS011;24821;51.988;6.020;2023-07-29T12:42:10;9.10;;;8.60;;
39066;SDS011;24821;51.988;6.020;2023-07-29T12:44:36;6.55;;;6.28;;
39066;SDS011;24821;51.988;6.020;2023-07-29T12:47:04;7.90;;;7.50;;
39066;SDS011;24821;51.988;6.020;2023-07-29T12:49:31;7.68;;;7.38;;
39066;SDS011;24821;51.988;6.020;2023-07-29T12:51:57;7.43;;;7.13;;
39066;SDS011;24821;51.988;6.020;2023-07-29T12:54:23;7.60;;;7.20;;
39066;SDS011;24821;51.988;6.020;2023-07-29T12:56:49;7.43;;;7.13;;
39066;SDS011;24821;51.988;6.020;2023-07-29T12:59:15;7.55;;;7.15;;
39066;SDS011;24821;51.988;6.020;2023-07-29T13:01:40;6.40;;;6.10;;
39066;SDS011;24821;51.988;6.020;2023-07-29T13:04:06;7.97;;;7.57;;
39066;SDS011;24821;51.988;6.020;2023-07-29T13:06:32;8.20;;;7.90;;
39066;SDS011;24821;51.988;6.020;2023-07-29T13:08:57;8.25;;;7.72;;
39066;SDS011;24821;51.988;6.020;2023-07-29T13:11:23;7.45;;;7.15;;
39066;SDS011;24821;51.988;6.020;2023-07-29T13:13:49;7.07;;;6.78;;
39066;SDS011;24821;51.988;6.020;2023-07-29T13:16:14;7.45;;;7.15;;
39066;SDS011;24821;51.988;6.020;2023-07-29T13:18:40;7.68;;;7.28;;
39066;SDS011;24821;51.988;6.020;2023-07-29T13:21:08;7.80;;;7.50;;
39066;SDS011;24821;51.988;6.020;2023-07-29T13:23:33;6.95;;;6.65;;
39066;SDS011;24821;51.988;6.020;2023-07-29T13:25:59;7.53;;;7.13;;
39066;SDS011;24821;51.988;6.020;2023-07-29T13:28:24;7.35;;;7.03;;
39066;SDS011;24821;51.988;6.020;2023-07-29T13:30:50;7.72;;;7.18;;
39066;SDS011;24821;51.988;6.020;2023-07-29T13:33:16;7.50;;;7.10;;
39066;SDS011;24821;51.988;6.020;2023-07-29T13:35:42;7.70;;;7.40;;
39066;SDS011;24821;51.988;6.020;2023-07-29T13:38:07;8.13;;;7.82;;
39066;SDS011;24821;51.988;6.020;2023-07-29T13:40:33;8.02;;;7.53;;
39066;SDS011;24821;51.988;6.020;2023-07-29T13:42:59;7.53;;;7.20;;
39066;SDS011;24821;51.988;6.020;2023-07-29T13:45:24;8.65;;;8.15;;
39066;SDS011;24821;51.988;6.020;2023-07-29T13:47:50;9.02;;;8.63;;
39066;SDS011;24821;51.988;6.020;2023-07-29T13:50:16;8.75;;;8.35;;
39066;SDS011;24821;51.988;6.020;2023-07-29T13:52:42;8.85;;;8.45;;
39066;SDS011;24821;51.988;6.020;2023-07-29T13:55:08;8.15;;;7.75;;
39066;SDS011;24821;51.988;6.020;2023-07-29T13:57:35;7.90;;;7.50;;
39066;SDS011;24821;51.988;6.020;2023-07-29T14:00:00;9.02;;;8.43;;
39066;SDS011;24821;51.988;6.020;2023-07-29T14:02:26;8.55;;;8.15;;
39066;SDS011;24821;51.988;6.020;2023-07-29T14:04:52;8.88;;;8.30;;
39066;SDS011;24821;51.988;6.020;2023-07-29T14:07:18;7.25;;;6.95;;
39066;SDS011;24821;51.988;6.020;2023-07-29T14:09:43;6.78;;;6.47;;
39066;SDS011;24821;51.988;6.020;2023-07-29T14:12:09;6.15;;;5.93;;
39066;SDS011;24821;51.988;6.020;2023-07-29T14:14:37;6.15;;;5.95;;
39066;SDS011;24821;51.988;6.020;2023-07-29T14:17:03;6.30;;;6.00;;
39066;SDS011;24821;51.988;6.020;2023-07-29T14:19:29;6.40;;;5.90;;
39066;SDS011;24821;51.988;6.020;2023-07-29T14:21:54;5.88;;;5.45;;
39066;SDS011;24821;51.988;6.020;2023-07-29T14:24:20;6.50;;;6.20;;
39066;SDS011;24821;51.988;6.020;2023-07-29T14:26:47;6.30;;;6.00;;
39066;SDS011;24821;51.988;6.020;2023-07-29T14:29:12;5.63;;;5.43;;
39066;SDS011;24821;51.988;6.020;2023-07-29T14:31:38;6.72;;;6.43;;
39066;SDS011;24821;51.988;6.020;2023-07-29T14:34:03;6.07;;;5.78;;
39066;SDS011;24821;51.988;6.020;2023-07-29T14:36:29;6.75;;;6.45;;
39066;SDS011;24821;51.988;6.020;2023-07-29T14:38:54;8.65;;;5.88;;
39066;SDS011;24821;51.988;6.020;2023-07-29T14:41:20;5.90;;;5.70;;
39066;SDS011;24821;51.988;6.020;2023-07-29T14:43:45;6.28;;;5.88;;
39066;SDS011;24821;51.988;6.020;2023-07-29T14:46:11;6.18;;;5.88;;
39066;SDS011;24821;51.988;6.020;2023-07-29T14:48:37;6.18;;;5.78;;